createdAt,value
2019-05-13T00:00:25.811Z,0.00
2019-05-13T00:15:26.050Z,0.00
2019-05-13T00:30:26.176Z,0.00
2019-05-13T00:45:26.402Z,0.00
2019-05-13T01:00:26.542Z,0.00
2019-05-13T01:15:26.746Z,0.00
2019-05-13T01:30:26.949Z,0.00
2019-05-13T01:45:27.129Z,0.00
2019-05-13T02:00:27.352Z,0.00
2019-05-13T02:15:27.549Z,0.00
2019-05-13T02:30:27.775Z,0.00
2019-05-13T02:45:29.012Z,0.00
2019-05-13T03:00:32.623Z,0.00
2019-05-13T03:15:33.501Z,11.25
2019-05-13T03:30:35.595Z,33.75
2019-05-13T03:45:35.965Z,61.88
2019-05-13T04:00:36.091Z,101.25
2019-05-13T04:15:36.256Z,146.25
2019-05-13T04:30:36.380Z,213.75
2019-05-13T04:45:36.660Z,208.12
2019-05-13T05:00:36.829Z,241.88
2019-05-13T05:15:36.999Z,286.88
2019-05-13T05:30:37.164Z,320.62
2019-05-13T05:45:37.273Z,348.75
2019-05-13T06:00:37.389Z,371.25
2019-05-13T06:15:37.482Z,421.88
2019-05-13T06:30:37.607Z,511.88
2019-05-13T06:45:37.836Z,658.12
2019-05-13T07:00:38.021Z,849.38
2019-05-13T07:15:41.432Z,1068.75
2019-05-13T07:30:42.664Z,1310.62
2019-05-13T07:45:43.338Z,1636.88
2019-05-13T08:00:43.435Z,1890.00
2019-05-13T08:15:43.668Z,1828.12
2019-05-13T08:30:43.893Z,2401.88
2019-05-13T08:45:44.035Z,2666.25
2019-05-13T09:00:44.160Z,2469.38
2019-05-13T09:15:44.376Z,641.25
2019-05-13T09:30:44.526Z,461.25
2019-05-13T09:45:44.699Z,1372.50
2019-05-13T10:00:44.896Z,3526.88
2019-05-13T10:15:48.733Z,4263.75
2019-05-13T10:30:52.491Z,4005.00
2019-05-13T10:45:53.503Z,675.00
2019-05-13T11:00:53.726Z,2520.00
2019-05-13T11:15:58.022Z,3960.00
2019-05-13T11:30:59.765Z,680.62
2019-05-13T11:46:02.206Z,534.38
2019-05-13T12:01:03.003Z,3915.00
2019-05-13T12:16:04.141Z,3695.62
2019-05-13T12:31:04.325Z,3600.00
2019-05-13T12:46:04.452Z,3285.00
2019-05-13T13:01:04.609Z,3397.50
2019-05-13T13:16:04.828Z,3301.88
2019-05-13T13:31:04.908Z,708.75
2019-05-13T13:46:25.129Z,489.38
2019-05-13T14:01:17.742Z,2238.75
2019-05-13T14:16:41.771Z,416.25
2019-05-13T14:31:21.425Z,534.38
2019-05-13T14:46:27.058Z,1755.00
2019-05-13T15:01:26.769Z,1321.88
2019-05-13T15:16:28.005Z,371.25
2019-05-13T15:31:28.136Z,371.25
2019-05-13T15:46:28.310Z,376.88
2019-05-13T16:01:28.459Z,551.25
2019-05-13T16:16:28.623Z,410.62
2019-05-13T16:31:28.737Z,421.88
2019-05-13T16:46:28.942Z,320.62
2019-05-13T17:01:31.111Z,230.62
2019-05-13T17:16:31.738Z,213.75
2019-05-13T17:31:32.658Z,196.88
2019-05-13T17:46:32.770Z,151.88
2019-05-13T18:01:32.872Z,101.25
2019-05-13T18:16:33.102Z,67.50
2019-05-13T18:31:33.308Z,39.38
2019-05-13T18:46:33.513Z,16.88
2019-05-13T19:01:33.603Z,5.62
2019-05-13T19:16:33.827Z,0.00
2019-05-13T19:31:34.015Z,0.00
2019-05-13T19:46:34.154Z,0.00
2019-05-13T20:01:34.311Z,0.00
2019-05-13T20:16:34.441Z,0.00
2019-05-13T20:31:34.656Z,0.00
2019-05-13T20:46:34.821Z,0.00
2019-05-13T21:01:34.970Z,0.00
2019-05-13T21:16:35.690Z,0.00
2019-05-13T21:31:35.889Z,0.00
2019-05-13T21:46:36.128Z,0.00
2019-05-13T22:01:36.322Z,0.00
2019-05-13T22:16:36.532Z,0.00
2019-05-13T22:31:36.733Z,0.00
2019-05-13T22:46:36.921Z,0.00
2019-05-13T23:01:37.113Z,0.00
2019-05-13T23:16:37.352Z,0.00
2019-05-13T23:31:37.629Z,0.00
2019-05-13T23:46:37.775Z,0.00
